Jesenik, Czech Republic
Current Conditions -  °F | °C
As of 10:00 AM on Thursday 29 Jan 2015 (Local Time) from LKMT Reporting Station
Light Snow Light Snow  
Wind Chill: 23°   Ceiling: 1800
Heat Index: 32°   Visibility: 2.5mi
Dew Point: 28°   Wind: 13mph
Humidity: 87%   Direction: 220°SW
Pressure: 29.47"   Gusts: NA
Location:  50.23°N, 17.2°E
Report Text: LKMT 290800Z 22011KT 4000 -SN OVC018 00/M02 Q0998 R04/420193TEMPO 3000 SN
Loading
Personal Weather Stations






























Interactive Weather Map New forecast layout! Learn more

10-Day Weather Forecast

Advertisements
Track Severe Weather on mobile